Latest Weather Observations for Tocal

IDN60801

Issued at 4:32 pm EST Monday 30 May 2016 (issued every 30 minutes, with the page automatically refreshed every 10 minutes)

About weather observations | Map of weather stations | Latest weather observations for NSW | Other Formats
Station Details ID: 061250 Name: TOCAL AWS Lat: -32.63 Lon: 151.59 Height: 30.0 m
Data from the previous 72 hours. | See also: Recent months at Tocal
Date/Time
EST
Temp
°C
App
Temp
°C
Dew
Point
Rel
Hum
%
Delta-T
°C
Wind Press
QNH
hPa
Press
MSL
hPa
Rain
since 9 am
mm
Dir
 
Spd
km/h
Gust
km/h
Spd
kts
Gust
kts
30/04:30pm 16.1 13.4 5.5 49 5.1 SE 9 13 5 7 - - 0.0
30/04:00pm 16.8 14.3 4.8 45 5.7 SE 7 11 4 6 - - 0.0
30/03:30pm 17.1 14.4 3.5 40 6.3 S 7 11 4 6 - - 0.0
30/03:00pm 17.0 14.2 2.1 36 6.7 SE 6 15 3 8 - - 0.0
30/02:30pm 17.1 14.0 1.3 34 7.0 SE 7 13 4 7 - - 0.0
30/02:00pm 17.5 14.2 -0.1 30 7.6 SW 7 11 4 6 - - 0.0
30/01:30pm 17.4 13.6 -0.7 29 7.7 SSE 9 13 5 7 - - 0.0
30/01:00pm 17.7 14.1 0.6 31 7.5 WNW 9 13 5 7 - - 0.0
30/12:30pm 17.8 14.6 0.8 32 7.5 NNW 7 13 4 7 - - 0.0
30/12:00pm 16.3 12.9 2.0 38 6.4 WNW 9 15 5 8 - - 0.0
30/11:30am 15.2 11.0 1.5 39 6.0 WSW 13 19 7 10 - - 0.0
30/11:00am 14.7 10.6 2.0 42 5.6 SW 13 17 7 9 - - 0.0
30/10:30am 14.3 10.7 3.2 47 5.0 W 11 17 6 9 - - 0.0
30/10:00am 12.3 9.3 4.1 57 3.7 ENE 9 11 5 6 - - 0.0
30/09:30am 10.6 7.5 3.8 63 3.0 NE 9 11 5 6 - - 0.0
30/09:00am 8.6 5.9 3.5 70 2.2 ENE 7 9 4 5 - - 0.0
30/08:30am 6.6 3.8 3.3 79 1.4 NE 7 9 4 5 - - 0.0
30/08:00am 5.2 3.7 2.8 84 1.0 CALM 0 0 0 0 - - 0.0
30/07:30am 3.8 2.2 2.6 92 0.5 CALM 0 0 0 0 - - 0.0
30/07:00am 2.4 0.7 2.1 98 0.1 CALM 0 0 0 0 - - 0.0
30/06:30am 3.1 1.5 2.6 96 0.2 CALM 0 0 0 0 - - 0.0
30/06:00am 3.3 1.7 2.5 94 0.3 CALM 0 0 0 0 - - 0.0
30/05:30am 4.0 2.5 3.0 93 0.4 CALM 0 0 0 0 - - 0.0
30/05:00am 4.1 1.8 2.9 92 0.5 W 4 7 2 4 - - 0.0
30/04:30am 4.1 2.6 2.9 92 0.5 CALM 0 0 0 0 - - 0.0
30/04:00am 5.2 3.4 3.3 87 0.8 WSW 2 6 1 3 - - 0.0
30/03:30am 5.7 4.3 3.3 84 1.0 CALM 0 0 0 0 - - 0.0
30/03:00am 7.3 5.9 3.3 76 1.7 CALM 0 0 0 0 - - 0.0
30/02:30am 7.0 5.6 3.7 79 1.4 CALM 0 0 0 0 - - 0.0
30/02:00am 8.2 6.8 3.5 72 2.0 CALM 0 0 0 0 - - 0.0
30/01:30am 8.6 7.2 3.8 72 2.1 CALM 0 0 0 0 - - 0.0
30/01:00am 8.3 6.5 3.4 71 2.1 E 2 7 1 4 - - 0.0
30/12:30am 9.0 7.6 3.4 68 2.4 CALM 0 4 0 2 - - 0.0
30/12:00am 9.3 6.5 3.3 66 2.6 NW 7 13 4 7 - - 0.0
 
Date/Time
EST
Temp
°C
App
Temp
°C
Dew
Point
Rel
Hum
%
Delta-T
°C
Wind Press
QNH
hPa
Press
MSL
hPa
Rain
since 9 am
mm
Dir
 
Spd
km/h
Gust
km/h
Spd
kts
Gust
kts
29/11:30pm 11.3 8.1 3.1 57 3.6 WNW 9 11 5 6 - - 0.0
29/11:00pm 11.6 8.0 3.2 56 3.7 W 11 17 6 9 - - 0.0
29/10:30pm 11.7 8.5 3.3 56 3.7 WNW 9 13 5 7 - - 0.0
29/10:00pm 12.2 9.0 3.1 53 4.0 NW 9 19 5 10 - - 0.0
29/09:30pm 12.6 8.6 3.1 52 4.2 NW 13 20 7 11 - - 0.0
29/09:00pm 13.1 8.3 2.7 49 4.6 NW 17 35 9 19 - - 0.0
29/08:30pm 13.2 8.8 2.5 48 4.7 NW 15 22 8 12 - - 0.0
29/08:00pm 13.6 8.7 2.2 46 5.0 NW 17 26 9 14 - - 0.0
29/07:30pm 14.2 9.3 1.8 43 5.4 NW 17 28 9 15 - - 0.0
29/07:00pm 14.1 9.2 1.7 43 5.4 NW 17 26 9 14 - - 0.0
29/06:30pm 14.5 9.5 1.3 40 5.7 NW 17 30 9 16 - - 0.0
29/06:00pm 14.4 9.0 1.5 41 5.6 NW 19 30 10 16 - - 0.0
29/05:30pm 14.2 10.0 1.5 42 5.5 NNW 13 20 7 11 - - 0.0
29/05:00pm 14.6 10.4 1.5 41 5.7 NW 13 20 7 11 - - 0.0
29/04:30pm 15.7 11.1 1.3 37 6.3 NW 15 22 8 12 - - 0.0
29/04:00pm 16.4 10.9 0.8 34 6.8 NW 19 32 10 17 - - 0.0
29/03:30pm 17.0 11.4 0.1 32 7.3 WNW 19 30 10 16 - - 0.0
29/03:00pm 17.4 12.2 0.4 31 7.4 NW 17 32 9 17 - - 0.0
29/02:30pm 17.2 11.2 0.8 33 7.2 NW 22 41 12 22 - - 0.0
29/02:00pm 17.5 11.4 0.3 31 7.5 W 22 33 12 18 - - 0.0
29/01:30pm 18.4 12.8 0.1 29 8.0 NW 19 32 10 17 - - 0.0
29/01:00pm 18.4 12.7 -0.7 27 8.2 NW 19 28 10 15 - - 0.0
29/12:30pm 17.2 11.2 0.8 33 7.2 W 22 33 12 18 - - 0.0
29/12:00pm 16.5 11.1 1.0 35 6.8 W 19 33 10 18 - - 0.0
29/11:30am 16.2 10.6 1.1 36 6.6 WNW 20 35 11 19 - - 0.0
29/11:00am 15.8 10.2 1.5 38 6.3 WNW 20 33 11 18 - - 0.0
29/10:30am 16.0 10.7 2.1 39 6.2 WNW 19 30 10 16 - - 0.0
29/10:00am 14.9 9.5 2.3 42 5.6 W 20 33 11 18 - - 0.0
29/09:30am 14.1 7.7 3.2 48 4.9 W 26 35 14 19 - - 0.0
29/09:00am 13.8 8.9 4.2 52 4.4 W 19 32 10 17 - - 0.0
29/08:30am 12.9 8.6 5.1 59 3.6 WNW 17 28 9 15 - - 0.0
29/08:00am 12.3 8.0 5.2 62 3.3 W 17 28 9 15 - - 0.0
29/07:30am 11.5 7.6 5.4 66 2.8 WNW 15 30 8 16 - - 0.0
29/07:00am 10.9 6.6 5.2 68 2.6 WNW 17 28 9 15 - - 0.0
29/06:30am 10.8 6.5 5.1 68 2.6 WNW 17 28 9 15 - - 0.0
29/06:00am 11.0 7.0 4.8 65 2.8 WNW 15 26 8 14 - - 0.0
29/05:30am 10.9 7.3 5.0 67 2.7 WNW 13 20 7 11 - - 0.0
29/05:00am 10.3 7.1 5.0 69 2.4 W 11 17 6 9 - - 0.0
29/04:30am 10.8 7.1 4.6 65 2.8 NW 13 22 7 12 - - 0.0
29/04:00am 11.0 7.3 4.3 63 3.0 NW 13 24 7 13 - - 0.0
29/03:30am 10.8 6.3 4.3 64 2.9 NW 17 26 9 14 - - 0.0
29/03:00am 11.0 6.9 4.3 63 3.0 NW 15 26 8 14 - - 0.0
29/02:30am 11.2 6.7 4.0 61 3.2 NW 17 26 9 14 - - 0.0
29/02:00am 11.3 6.7 3.9 60 3.3 NNW 17 24 9 13 - - 0.0
29/01:30am 11.5 7.4 4.1 60 3.3 NW 15 28 8 15 - - 0.0
29/01:00am 11.5 7.3 3.9 59 3.4 NW 15 28 8 15 - - 0.0
29/12:30am 11.9 6.7 3.6 57 3.7 WNW 20 35 11 19 - - 0.0
29/12:00am 11.7 6.2 3.9 59 3.5 NW 22 35 12 19 - - 0.0
 
Date/Time
EST
Temp
°C
App
Temp
°C
Dew
Point
Rel
Hum
%
Delta-T
°C
Wind Press
QNH
hPa
Press
MSL
hPa
Rain
since 9 am
mm
Dir
 
Spd
km/h
Gust
km/h
Spd
kts
Gust
kts
28/11:30pm 11.5 6.5 4.4 61 3.2 WNW 20 37 11 20 - - 0.0
28/11:00pm 11.6 6.6 4.5 61 3.2 NW 20 33 11 18 - - 0.0
28/10:30pm 11.6 7.1 4.3 61 3.3 NW 17 26 9 14 - - 0.0
28/10:00pm 11.7 7.2 4.4 61 3.3 NW 17 30 9 16 - - 0.0
28/09:30pm 11.9 7.4 4.1 59 3.5 NW 17 30 9 16 - - 0.0
28/09:00pm 12.1 7.6 4.1 58 3.6 WNW 17 26 9 14 - - 0.0
28/08:30pm 12.2 7.3 4.0 57 3.7 NW 19 33 10 18 - - 0.0
28/08:00pm 12.3 7.2 4.1 57 3.7 NW 20 33 11 18 - - 0.0
28/07:30pm 12.4 6.9 4.2 57 3.7 NW 22 33 12 18 - - 0.0
28/07:00pm 12.6 8.0 3.7 54 4.0 NW 17 30 9 16 - - 0.0
28/06:30pm 12.8 7.6 3.7 54 4.1 NW 20 32 11 17 - - 0.0
28/06:00pm 12.9 7.4 3.8 54 4.1 NW 22 33 12 18 - - 0.0
28/05:30pm 13.0 8.0 3.7 53 4.2 NW 19 33 10 18 - - 0.0
28/05:00pm 13.3 8.3 3.5 51 4.4 NW 19 32 10 17 - - 0.0
28/04:30pm 14.2 8.2 3.3 48 4.9 NW 24 48 13 26 - - 0.0
28/04:00pm 14.9 9.3 3.5 46 5.2 NW 22 46 12 25 - - 0.0
28/03:30pm 15.7 8.8 2.3 40 6.0 WNW 28 50 15 27 - - 0.0
28/03:10pm 15.9 8.9 2.0 39 6.2 NW 28 50 15 27 - - 0.0
28/03:09pm 15.9 8.9 2.0 39 6.2 NW 28 50 15 27 - - 0.0
28/03:00pm 15.8 10.4 2.7 41 5.9 WNW 20 33 11 18 - - 0.0
28/02:38pm 15.3 8.4 2.6 42 5.7 W 28 48 15 26 - - 0.0
28/02:37pm 15.3 8.4 2.6 42 5.7 W 28 48 15 26 - - 0.0
28/02:30pm 15.5 9.3 2.3 41 5.9 W 24 39 13 21 - - 0.0
28/02:04pm 17.4 10.3 1.1 33 7.2 WNW 28 54 15 29 - - 0.0
28/02:03pm 17.4 9.5 1.1 33 7.2 NW 32 54 17 29 - - 0.0
28/02:00pm 16.4 9.6 0.8 34 6.8 WNW 26 50 14 27 - - 0.0
28/01:30pm 16.5 9.4 1.6 36 6.6 W 28 59 15 32 - - 0.0
28/01:00pm 16.0 8.2 2.7 41 6.0 W 33 54 18 29 - - 0.0
28/12:39pm 17.3 10.7 4.1 41 6.2 WNW 28 54 15 29 - - 0.0
28/12:30pm 15.7 10.0 4.9 48 5.1 WNW 24 43 13 23 - - 0.0
28/12:10pm 14.7 8.3 5.1 52 4.5 W 28 48 15 26 - - 0.0
28/12:09pm 14.7 8.3 5.1 52 4.5 W 28 48 15 26 - - 0.0
28/12:00pm 15.0 10.1 5.3 52 4.6 WNW 20 32 11 17 - - 0.0
28/11:30am 14.2 8.1 6.5 60 3.7 W 28 39 15 21 - - 0.0
28/11:00am 17.1 11.6 4.1 42 6.1 NNW 22 39 12 21 - - 0.0
28/10:30am 16.2 10.2 5.3 48 5.2 NW 26 41 14 22 - - 0.0
28/10:00am 15.1 11.3 5.9 54 4.4 WNW 15 28 8 15 - - 0.0
28/09:30am 13.4 7.4 5.5 59 3.7 W 26 39 14 21 - - 0.0
28/09:09am 14.9 8.1 4.9 51 4.7 W 30 43 16 23 - - 0.0
28/09:00am 15.5 11.5 4.9 49 5.0 WNW 15 24 8 13 - - 0.0
28/08:30am 12.3 10.2 5.9 65 3.0 NE 6 9 3 5 - - 0.0
28/08:00am 10.7 9.7 5.5 70 2.4 CALM 0 0 0 0 - - 0.0
28/07:30am 8.9 7.9 5.4 79 1.6 CALM 0 0 0 0 - - 0.0
28/07:00am 7.5 6.4 5.0 84 1.1 CALM 0 6 0 3 - - 0.0
28/06:30am 7.5 5.0 5.0 84 1.1 NW 7 9 4 5 - - 0.0
28/06:00am 9.7 7.0 5.5 75 1.9 WSW 9 11 5 6 - - 0.0
28/05:30am 10.2 6.6 5.1 70 2.3 WSW 13 17 7 9 - - 0.0
28/05:00am 11.2 7.9 4.6 64 3.0 WNW 11 17 6 9 - - 0.0
28/04:30am 11.6 7.5 4.5 61 3.2 WNW 15 24 8 13 - - 0.0
28/04:00am 11.6 7.5 4.5 61 3.2 WNW 15 26 8 14 - - 0.0
28/03:30am 11.8 8.1 4.5 61 3.3 NW 13 19 7 10 - - 0.0
28/03:00am 12.4 8.4 4.8 60 3.5 WNW 15 26 8 14 - - 0.0
28/02:30am 12.8 9.2 4.8 58 3.7 W 13 26 7 14 - - 0.0
28/02:00am 13.4 8.4 4.7 55 4.0 WNW 20 35 11 19 - - 0.0
28/01:30am 13.4 9.0 4.5 55 4.1 WNW 17 32 9 17 - - 0.0
28/01:00am 13.2 8.3 4.2 54 4.1 WNW 19 39 10 21 - - 0.0
28/12:30am 13.6 6.9 3.6 51 4.5 WNW 28 41 15 22 - - 0.0
28/12:00am 13.7 9.1 3.5 50 4.6 WNW 17 32 9 17 - - 0.0
 
Date/Time
EST
Temp
°C
App
Temp
°C
Dew
Point
Rel
Hum
%
Delta-T
°C
Wind Press
QNH
hPa
Press
MSL
hPa
Rain
since 9 am
mm
Dir
 
Spd
km/h
Gust
km/h
Spd
kts
Gust
kts
27/11:30pm 13.5 8.3 3.5 51 4.5 WNW 20 33 11 18 - - 0.0
27/11:00pm 13.8 6.7 3.4 49 4.7 WNW 30 57 16 31 - - 0.0
27/10:58pm 13.9 7.2 3.5 49 4.7 WNW 28 57 15 31 - - 0.0
27/10:30pm 14.0 8.3 3.1 48 4.9 WNW 22 43 12 23 - - 0.0
27/10:00pm 13.9 7.9 3.2 48 4.8 WNW 24 41 13 22 - - 0.0
27/09:39pm 14.2 7.3 2.8 46 5.1 NW 28 56 15 30 - - 0.0
27/09:38pm 14.2 7.3 2.8 46 5.1 NW 28 56 15 30 - - 0.0
27/09:30pm 14.1 8.4 2.9 47 5.0 WNW 22 39 12 21 - - 0.0
27/09:00pm 14.3 7.4 2.6 45 5.2 WNW 28 43 15 23 - - 0.0
27/08:30pm 14.5 7.8 1.7 42 5.6 WNW 26 48 14 26 - - 0.0
27/08:00pm 14.8 9.2 1.2 39 5.9 WNW 20 39 11 21 - - 0.0
27/07:33pm 14.7 7.4 0.3 37 6.1 WNW 28 59 15 32 - - 0.0
27/07:30pm 14.9 8.0 0.3 37 6.2 WNW 26 54 14 29 - - 0.0
27/07:00pm 15.0 7.7 0.1 36 6.3 WNW 28 52 15 28 - - 0.0
27/06:30pm 15.1 7.4 0.0 35 6.4 WNW 30 50 16 27 - - 0.0
27/06:27pm 15.1 7.8 0.0 35 6.4 WNW 28 50 15 27 - - 0.0
27/06:26pm 15.1 7.8 0.0 35 6.4 WNW 28 50 15 27 - - 0.0
27/06:00pm 15.3 9.1 0.0 35 6.5 WNW 22 35 12 19 - - 0.0
27/05:32pm 15.7 8.3 -0.4 33 6.8 WNW 28 46 15 25 - - 0.0
27/05:30pm 15.7 8.7 -0.4 33 6.8 WNW 26 46 14 25 - - 0.0
27/05:00pm 15.8 9.3 0.1 34 6.7 WNW 24 48 13 26 - - 0.0
27/04:49pm 16.1 8.8 -0.1 33 6.9 WNW 28 56 15 30 - - 0.0

Other Formats:

Comma delimited format used in spreadsheet applications
http://www.bom.gov.au/fwo/IDN60801/IDN60801.94775.axf

JavaScript Object Notation format (JSON) in row-major order
http://www.bom.gov.au/fwo/IDN60801/IDN60801.94775.json